Lake Maxine, Indiana
Current Conditions -  °F | °C
As of 5:55 AM on Friday 31 Oct 2014 (Local Time) from K4I7 Reporting Station
Broken Clouds Broken Clouds  
Wind Chill: 43°   Ceiling: 10000
Heat Index: 43°   Visibility: 10mi
Dew Point: 37°   Wind: 0mph
Humidity: 81%   Direction: NA
Pressure: 30.01"   Gusts: NA
Location:  39.4355°N, 86.7884°W
Report Text: K4I7 310955Z AUTO 00000KT 10SM SCT060 BKN100 06/03 A3001 RMK AO2
Loading
Personal Weather Stations






























Interactive Weather Map
Tropical Storm Tracking
New forecast layout! Learn more

10-Day Weather Forecast

Advertisements
Track Severe Weather on mobile